Terminal Aerodrome Forecast
Issued by NWS

Home | Current Version | Previous Version | Graphics & Text | Print | Product List | Glossary On
Versions: 1 2 3 4 5 6 7 8 9 10 11 12 13 14 15 16 17 18 19 20 21 22 23 24 25
000
FTUS43 KGRB 291700
TAFATW
TAF
KATW 291726Z 2918/3018 01013G20KT 3SM BR BKN005 OVC010
      TEMPO 2918/2920 6SM -SHRA BR SCT005 OVC010
     FM292000 02012G18KT P6SM SCT010 OVC020
      TEMPO 2920/2924 BKN010
     FM300000 02010G18KT P6SM BKN018
     FM300700 36010KT P6SM BKN012
     FM301400 03008KT P6SM BKN020=

USA.gov is the U.S. government's official web portal to all federal, state and local government web resources and services.